createdAt,value
2022-11-15T00:00:59.748Z,75.67
2022-11-15T00:03:29.647Z,76.17
2022-11-15T00:06:03.738Z,75.54
2022-11-15T00:08:32.419Z,76.24
2022-11-15T00:11:01.386Z,76.16
2022-11-15T00:13:29.897Z,76.09
2022-11-15T00:16:00.745Z,76.36
2022-11-15T00:18:30.948Z,77.04
2022-11-15T00:21:04.479Z,75.73
2022-11-15T00:23:32.527Z,76.37
2022-11-15T00:26:00.612Z,76.66
2022-11-15T00:28:28.320Z,76.29
2022-11-15T00:30:55.803Z,76.21
2022-11-15T00:33:24.598Z,76.36
2022-11-15T00:35:52.064Z,75.68
2022-11-15T00:38:19.537Z,75.82
2022-11-15T00:40:47.163Z,75.68
2022-11-15T00:43:14.607Z,75.79
2022-11-15T00:45:42.089Z,75.94
2022-11-15T00:48:09.534Z,75.66
2022-11-15T00:50:38.481Z,75.99
2022-11-15T00:53:05.936Z,75.47
2022-11-15T00:55:33.454Z,76.36
2022-11-15T00:58:01.096Z,75.88
2022-11-15T01:00:28.857Z,77.01
2022-11-15T01:02:56.465Z,76.04
2022-11-15T01:05:24.180Z,76.77
2022-11-15T01:07:55.430Z,76.50
2022-11-15T01:10:23.114Z,76.49
2022-11-15T01:12:51.397Z,75.54
2022-11-15T01:15:18.951Z,76.19
2022-11-15T01:17:46.450Z,75.87
2022-11-15T01:20:14.355Z,76.72
2022-11-15T01:22:41.821Z,76.72
2022-11-15T01:25:10.639Z,75.93
2022-11-15T01:27:38.178Z,76.66
2022-11-15T01:30:06.959Z,77.14
2022-11-15T01:32:34.419Z,76.22
2022-11-15T01:35:01.858Z,76.43
2022-11-15T01:37:29.311Z,76.41
2022-11-15T01:39:56.748Z,76.11
2022-11-15T01:42:25.559Z,75.36
2022-11-15T01:44:54.090Z,76.50
2022-11-15T01:47:23.396Z,76.24
2022-11-15T01:49:57.100Z,76.37
2022-11-15T01:52:26.940Z,75.49
2022-11-15T01:55:00.101Z,75.80
2022-11-15T01:57:28.972Z,75.96
2022-11-15T01:59:57.374Z,76.14
2022-11-15T02:02:25.419Z,75.26
2022-11-15T02:04:53.115Z,76.07
2022-11-15T02:07:23.625Z,75.70
2022-11-15T02:09:52.585Z,76.05
2022-11-15T02:12:22.614Z,76.17
2022-11-15T02:14:54.540Z,75.50
2022-11-15T02:17:36.504Z,76.66
2022-11-15T02:20:51.928Z,75.73
2022-11-15T02:23:47.976Z,76.92
2022-11-15T02:26:28.165Z,75.40
2022-11-15T02:29:03.557Z,76.51
2022-11-15T02:31:40.280Z,76.41
2022-11-15T02:34:14.603Z,76.25
2022-11-15T02:36:46.060Z,76.16
2022-11-15T02:39:22.915Z,75.68
2022-11-15T02:41:55.443Z,76.92
2022-11-15T02:44:25.482Z,75.73
2022-11-15T02:47:17.086Z,76.23
2022-11-15T02:49:48.903Z,75.75
2022-11-15T02:52:18.312Z,76.69
2022-11-15T02:54:56.002Z,76.79
2022-11-15T02:57:37.057Z,75.79
2022-11-15T03:00:08.128Z,76.39
2022-11-15T03:03:02.401Z,77.48
2022-11-15T03:05:37.750Z,77.21
2022-11-15T03:08:12.547Z,76.78
2022-11-15T03:10:47.527Z,76.37
2022-11-15T03:13:23.243Z,76.35
2022-11-15T03:15:59.628Z,76.91
2022-11-15T03:18:34.026Z,76.75
2022-11-15T03:21:06.115Z,77.04
2022-11-15T03:23:35.904Z,76.35
2022-11-15T03:26:03.805Z,77.13
2022-11-15T03:28:35.928Z,76.78
2022-11-15T03:31:26.371Z,77.04
2022-11-15T03:33:59.750Z,75.75
2022-11-15T03:36:28.874Z,76.65
2022-11-15T03:39:01.951Z,76.88
2022-11-15T03:41:37.138Z,76.66
2022-11-15T03:44:10.339Z,76.07
2022-11-15T03:46:44.549Z,76.54
2022-11-15T03:49:19.087Z,75.95
2022-11-15T03:51:46.736Z,76.17
2022-11-15T03:54:15.308Z,76.27
2022-11-15T03:56:42.739Z,76.92
2022-11-15T03:59:10.220Z,76.02
2022-11-15T04:01:37.721Z,76.39
2022-11-15T04:04:05.458Z,77.16
2022-11-15T04:06:34.325Z,76.66
2022-11-15T04:09:01.937Z,75.62
2022-11-15T04:11:29.688Z,76.39
2022-11-15T04:13:57.144Z,75.91
2022-11-15T04:16:24.576Z,76.59
2022-11-15T04:19:12.008Z,76.18
2022-11-15T04:21:58.198Z,75.65
2022-11-15T04:24:25.631Z,76.47
2022-11-15T04:26:53.077Z,77.00
2022-11-15T04:29:35.958Z,77.37
2022-11-15T04:32:03.537Z,77.14
2022-11-15T04:34:32.427Z,77.32
2022-11-15T04:37:13.412Z,76.25
2022-11-15T04:39:41.224Z,76.87
2022-11-15T04:42:08.938Z,76.91
2022-11-15T04:44:36.689Z,76.83
2022-11-15T04:47:04.770Z,77.44
2022-11-15T04:49:32.208Z,75.97
2022-11-15T04:52:01.074Z,76.81
2022-11-15T04:54:29.033Z,76.56
2022-11-15T04:56:56.568Z,76.70
2022-11-15T04:59:24.007Z,76.16
2022-11-15T05:01:51.465Z,76.60
2022-11-15T05:04:21.031Z,76.53
2022-11-15T05:06:50.107Z,77.16
2022-11-15T05:09:20.259Z,77.31
2022-11-15T05:11:48.543Z,77.38
2022-11-15T05:14:16.231Z,76.41
2022-11-15T05:16:44.393Z,78.45
2022-11-15T05:19:11.903Z,77.82
2022-11-15T05:21:39.751Z,77.44
2022-11-15T05:24:08.137Z,77.64
2022-11-15T05:26:36.965Z,76.25
2022-11-15T05:29:04.656Z,76.38
2022-11-15T05:31:32.333Z,77.90
2022-11-15T05:34:02.793Z,77.09
2022-11-15T05:36:36.434Z,77.23
2022-11-15T05:39:05.443Z,76.75
2022-11-15T05:41:36.021Z,77.27
2022-11-15T05:44:09.061Z,77.20
2022-11-15T05:46:38.323Z,77.12
2022-11-15T05:49:10.054Z,76.93
2022-11-15T05:51:37.784Z,76.83
2022-11-15T05:54:05.477Z,76.63
2022-11-15T05:56:33.272Z,77.06
2022-11-15T05:59:00.976Z,76.95
2022-11-15T06:01:29.990Z,77.73
2022-11-15T06:03:57.639Z,78.05
2022-11-15T06:06:25.290Z,77.33
2022-11-15T06:08:52.745Z,78.13
2022-11-15T06:11:20.175Z,78.67
2022-11-15T06:13:47.684Z,77.84
2022-11-15T06:16:15.331Z,77.97
2022-11-15T06:18:44.154Z,77.26
2022-11-15T06:21:11.649Z,77.89
2022-11-15T06:23:39.086Z,77.32
2022-11-15T06:26:06.901Z,76.48
2022-11-15T06:28:34.890Z,76.86
2022-11-15T06:31:04.954Z,77.22
2022-11-15T06:33:32.647Z,77.33
2022-11-15T06:36:04.139Z,77.19
2022-11-15T06:38:31.837Z,76.01
2022-11-15T06:41:03.926Z,76.89
2022-11-15T06:43:31.869Z,76.24
2022-11-15T06:46:00.286Z,76.53
2022-11-15T06:48:27.775Z,76.46
2022-11-15T06:50:56.300Z,76.51
2022-11-15T06:53:25.573Z,74.84
2022-11-15T06:55:55.474Z,75.78
2022-11-15T06:58:23.415Z,75.62
2022-11-15T07:00:50.924Z,75.11
2022-11-15T07:03:18.455Z,75.08
2022-11-15T07:05:54.111Z,74.49
2022-11-15T07:08:21.534Z,74.46
2022-11-15T07:10:50.748Z,74.33
2022-11-15T07:13:19.237Z,74.62
2022-11-15T07:15:46.773Z,73.95
2022-11-15T07:18:14.256Z,74.54
2022-11-15T07:20:41.738Z,74.47
2022-11-15T07:23:09.241Z,74.51
2022-11-15T07:25:36.713Z,73.92
2022-11-15T07:28:05.992Z,72.89
2022-11-15T07:30:33.696Z,72.75
2022-11-15T07:33:02.416Z,72.94
2022-11-15T07:35:31.016Z,73.88
2022-11-15T07:37:59.554Z,74.23
2022-11-15T07:40:27.832Z,73.91
2022-11-15T07:43:01.324Z,74.11
2022-11-15T07:45:30.691Z,73.37
2022-11-15T07:47:58.559Z,74.94
2022-11-15T07:50:26.691Z,74.14
2022-11-15T07:52:57.584Z,74.08
2022-11-15T07:55:25.474Z,73.35
2022-11-15T07:57:53.141Z,73.54
2022-11-15T08:00:21.433Z,72.88
2022-11-15T08:02:50.593Z,72.59
2022-11-15T08:05:18.544Z,72.41
2022-11-15T08:07:46.005Z,72.37
2022-11-15T08:10:14.815Z,72.45
2022-11-15T08:12:42.547Z,71.94
2022-11-15T08:15:10.857Z,71.53
2022-11-15T08:17:38.276Z,71.19
2022-11-15T08:20:08.418Z,71.96
2022-11-15T08:22:35.891Z,71.46
2022-11-15T08:25:03.371Z,71.42
2022-11-15T08:27:30.887Z,71.60
2022-11-15T08:29:59.674Z,71.22
2022-11-15T08:32:27.205Z,70.83
2022-11-15T08:34:54.660Z,70.30
2022-11-15T08:37:23.510Z,70.42
2022-11-15T08:39:51.177Z,70.40
2022-11-15T08:42:20.245Z,69.38
2022-11-15T08:44:47.824Z,70.00
2022-11-15T08:47:15.612Z,69.68
2022-11-15T08:49:43.081Z,69.07
2022-11-15T08:52:10.753Z,68.53
2022-11-15T08:54:39.581Z,68.74
2022-11-15T08:57:07.073Z,69.10
2022-11-15T08:59:34.499Z,69.45
2022-11-15T09:02:01.969Z,68.44
2022-11-15T09:04:29.915Z,67.71
2022-11-15T09:06:57.507Z,67.89
2022-11-15T09:09:25.039Z,68.33
2022-11-15T09:11:58.031Z,68.53
2022-11-15T09:14:28.606Z,67.21
2022-11-15T09:16:56.177Z,67.58
2022-11-15T09:19:23.687Z,66.57
2022-11-15T09:21:51.323Z,67.94
2022-11-15T09:24:19.193Z,67.69
2022-11-15T09:26:46.785Z,67.15
2022-11-15T09:29:15.788Z,66.69
2022-11-15T09:31:43.557Z,66.53
2022-11-15T09:34:11.045Z,65.90
2022-11-15T09:36:38.638Z,65.68
2022-11-15T09:39:06.118Z,65.72
2022-11-15T09:42:00.320Z,65.46
2022-11-15T09:44:44.696Z,64.90
2022-11-15T09:47:43.186Z,64.64
2022-11-15T09:50:12.950Z,64.56
2022-11-15T09:52:44.696Z,64.04
2022-11-15T09:55:15.461Z,63.51
2022-11-15T09:57:51.442Z,63.03
2022-11-15T10:00:45.248Z,62.64
2022-11-15T10:03:16.061Z,63.89
2022-11-15T10:05:45.244Z,62.62
2022-11-15T10:08:30.747Z,62.31
2022-11-15T10:13:50.555Z,61.67
2022-11-15T10:16:55.924Z,62.31
2022-11-15T10:19:31.499Z,62.09
2022-11-15T10:22:16.848Z,62.20
2022-11-15T10:24:46.258Z,62.22
2022-11-15T10:27:15.751Z,60.63
2022-11-15T10:29:45.832Z,60.76
2022-11-15T10:32:16.324Z,60.56
2022-11-15T10:34:44.141Z,60.58
2022-11-15T10:37:11.940Z,59.40
2022-11-15T10:39:39.572Z,59.51
2022-11-15T10:42:27.332Z,58.76
2022-11-15T10:44:54.930Z,59.37
2022-11-15T10:47:37.839Z,58.66
2022-11-15T10:50:09.396Z,58.37
2022-11-15T10:52:38.599Z,58.71
2022-11-15T10:55:23.550Z,58.37
2022-11-15T10:57:54.689Z,58.29
2022-11-15T11:00:32.719Z,58.40
2022-11-15T11:03:04.058Z,57.52
2022-11-15T11:05:39.697Z,58.01
2022-11-15T11:08:23.970Z,57.76
2022-11-15T11:11:01.423Z,56.54
2022-11-15T11:13:31.777Z,56.69
2022-11-15T11:16:11.153Z,57.03
2022-11-15T11:18:45.193Z,55.99
2022-11-15T11:21:16.610Z,55.68
2022-11-15T11:23:51.994Z,55.67
2022-11-15T11:26:37.590Z,56.17
2022-11-15T11:29:12.061Z,54.78
2022-11-15T11:31:49.711Z,53.99
2022-11-15T11:34:33.203Z,53.31
2022-11-15T11:37:09.855Z,53.70
2022-11-15T11:39:48.785Z,52.45
2022-11-15T11:42:25.767Z,53.11
2022-11-15T11:45:05.612Z,53.21
2022-11-15T11:47:36.929Z,51.90
2022-11-15T11:50:15.066Z,52.70
2022-11-15T11:52:51.220Z,51.17
2022-11-15T11:55:24.368Z,50.72
2022-11-15T11:58:00.680Z,50.32
2022-11-15T12:00:29.453Z,50.37
2022-11-15T12:03:09.757Z,50.40
2022-11-15T12:05:42.439Z,50.21
2022-11-15T12:08:25.330Z,49.77
2022-11-15T12:10:59.796Z,49.39
2022-11-15T12:13:34.344Z,49.99
2022-11-15T12:16:10.425Z,49.52
2022-11-15T12:18:38.977Z,49.10
2022-11-15T12:21:17.318Z,49.72
2022-11-15T12:23:48.423Z,49.80
2022-11-15T12:26:20.866Z,49.71
2022-11-15T12:29:06.811Z,50.43
2022-11-15T12:31:40.049Z,50.03
2022-11-15T12:34:30.822Z,50.48
2022-11-15T12:37:00.005Z,50.48
2022-11-15T12:40:04.234Z,50.23
2022-11-15T12:42:43.311Z,50.96
2022-11-15T12:45:28.359Z,51.25
2022-11-15T12:47:58.210Z,50.98
2022-11-15T12:50:58.859Z,50.61
2022-11-15T12:53:32.371Z,50.59
2022-11-15T12:56:22.686Z,51.23
2022-11-15T12:58:53.542Z,50.71
2022-11-15T13:02:00.394Z,50.99
2022-11-15T13:04:30.651Z,50.76
2022-11-15T13:07:01.124Z,50.40
2022-11-15T13:09:57.772Z,50.47
2022-11-15T13:12:57.796Z,50.94
2022-11-15T13:16:00.631Z,51.42
2022-11-15T13:18:35.749Z,50.98
2022-11-15T13:21:27.045Z,51.29
2022-11-15T13:23:56.408Z,51.56
2022-11-15T13:26:25.475Z,51.59
2022-11-15T13:28:56.244Z,51.34
2022-11-15T13:31:27.536Z,51.03
2022-11-15T13:33:57.671Z,51.49
2022-11-15T13:36:27.601Z,51.69
2022-11-15T13:39:00.633Z,51.30
2022-11-15T13:41:31.801Z,51.32
2022-11-15T13:44:00.631Z,51.69
2022-11-15T13:46:29.265Z,52.26
2022-11-15T13:49:00.647Z,52.58
2022-11-15T13:51:39.048Z,52.84
2022-11-15T13:54:15.714Z,52.84
2022-11-15T13:56:48.242Z,52.79
2022-11-15T13:59:22.108Z,53.07
2022-11-15T14:01:51.511Z,53.45
2022-11-15T14:04:22.095Z,54.00
2022-11-15T14:06:52.009Z,53.94
2022-11-15T14:09:41.443Z,54.47
2022-11-15T14:12:40.481Z,54.81
2022-11-15T14:15:26.889Z,54.89
2022-11-15T14:17:54.404Z,54.98
2022-11-15T14:20:29.443Z,55.31
2022-11-15T14:22:58.681Z,55.29
2022-11-15T14:25:26.898Z,56.05
2022-11-15T14:28:14.962Z,56.07
2022-11-15T14:30:44.055Z,56.38
2022-11-15T14:33:23.980Z,56.62
2022-11-15T14:35:51.772Z,56.62
2022-11-15T14:38:19.379Z,57.42
2022-11-15T14:40:46.922Z,57.31
2022-11-15T14:43:15.762Z,57.24
2022-11-15T14:45:43.369Z,56.27
2022-11-15T14:48:10.855Z,56.58
2022-11-15T14:50:38.446Z,56.91
2022-11-15T14:53:06.863Z,57.21
2022-11-15T14:55:37.007Z,57.30
2022-11-15T14:58:05.063Z,57.95
2022-11-15T15:00:35.497Z,58.11
2022-11-15T15:03:03.907Z,57.93
2022-11-15T15:05:34.292Z,58.22
2022-11-15T15:08:01.990Z,58.59
2022-11-15T15:10:42.178Z,58.35
2022-11-15T15:13:18.562Z,58.03
2022-11-15T15:15:47.857Z,58.33
2022-11-15T15:18:16.244Z,58.28
2022-11-15T15:20:46.391Z,58.06
2022-11-15T15:23:18.081Z,58.39
2022-11-15T15:25:47.013Z,58.35
2022-11-15T15:28:15.108Z,58.83
2022-11-15T15:30:42.917Z,59.16
2022-11-15T15:33:11.821Z,59.87
2022-11-15T15:35:39.524Z,59.05
2022-11-15T15:38:06.988Z,59.17
2022-11-15T15:40:35.131Z,59.61
2022-11-15T15:43:02.613Z,59.87
2022-11-15T15:45:30.571Z,59.90
2022-11-15T15:47:58.095Z,59.62
2022-11-15T15:50:28.625Z,59.96
2022-11-15T15:52:58.491Z,60.26
2022-11-15T15:55:27.058Z,60.12
2022-11-15T15:57:54.647Z,60.01
2022-11-15T16:00:24.339Z,60.37
2022-11-15T16:02:54.531Z,60.25
2022-11-15T16:05:22.131Z,61.08
2022-11-15T16:07:51.315Z,61.56
2022-11-15T16:10:23.415Z,61.17
2022-11-15T16:12:51.145Z,61.26
2022-11-15T16:15:19.522Z,61.38
2022-11-15T16:17:50.650Z,60.82
2022-11-15T16:20:37.000Z,61.54
2022-11-15T16:23:09.594Z,61.31
2022-11-15T16:25:41.636Z,62.00
2022-11-15T16:28:18.521Z,60.77
2022-11-15T16:30:46.161Z,62.48
2022-11-15T16:33:13.630Z,61.75
2022-11-15T16:35:41.111Z,62.19
2022-11-15T16:38:16.142Z,61.91
2022-11-15T16:40:44.038Z,61.51
2022-11-15T16:43:12.019Z,61.89
2022-11-15T16:45:39.661Z,61.84
2022-11-15T16:48:07.343Z,63.24
2022-11-15T16:50:40.669Z,62.83
2022-11-15T16:53:08.154Z,62.03
2022-11-15T16:55:36.958Z,62.00
2022-11-15T16:58:04.422Z,62.30
2022-11-15T17:00:31.946Z,62.98
2022-11-15T17:02:59.512Z,62.64
2022-11-15T17:05:28.235Z,63.47
2022-11-15T17:07:55.794Z,62.50
2022-11-15T17:10:24.355Z,62.98
2022-11-15T17:12:53.950Z,62.75
2022-11-15T17:15:21.762Z,62.50
2022-11-15T17:17:52.966Z,62.66
2022-11-15T17:20:22.104Z,62.92
2022-11-15T17:22:49.737Z,62.83
2022-11-15T17:25:17.554Z,62.86
2022-11-15T17:27:45.108Z,62.86
2022-11-15T17:30:15.974Z,61.78
2022-11-15T17:32:43.788Z,62.61
2022-11-15T17:35:15.530Z,62.26
2022-11-15T17:37:43.679Z,61.98
2022-11-15T17:40:12.180Z,62.76
2022-11-15T17:42:41.882Z,62.28
2022-11-15T17:45:10.584Z,62.62
2022-11-15T17:47:39.584Z,62.04
2022-11-15T17:50:07.359Z,61.60
2022-11-15T17:52:34.860Z,62.41
2022-11-15T17:55:02.367Z,62.41
2022-11-15T17:57:29.789Z,62.87
2022-11-15T17:59:57.272Z,62.67
2022-11-15T18:02:24.740Z,62.48
2022-11-15T18:04:53.534Z,62.47
2022-11-15T18:07:21.080Z,62.75
2022-11-15T18:09:48.673Z,63.11
2022-11-15T18:12:16.623Z,62.76
2022-11-15T18:14:44.103Z,63.54
2022-11-15T18:17:11.549Z,62.97
2022-11-15T18:19:39.019Z,63.15
2022-11-15T18:22:10.114Z,62.73
2022-11-15T18:24:38.529Z,62.76
2022-11-15T18:27:07.248Z,62.64
2022-11-15T18:29:37.621Z,63.14
2022-11-15T18:32:11.258Z,63.20
2022-11-15T18:34:38.986Z,63.60
2022-11-15T18:37:08.312Z,63.45
2022-11-15T18:39:35.861Z,63.42
2022-11-15T18:42:03.628Z,63.89
2022-11-15T18:44:31.371Z,63.79
2022-11-15T18:46:59.048Z,63.61
2022-11-15T18:49:26.576Z,64.09
2022-11-15T18:51:54.047Z,64.24
2022-11-15T18:54:28.137Z,64.11
2022-11-15T18:56:58.276Z,64.86
2022-11-15T18:59:27.524Z,64.70
2022-11-15T19:01:55.922Z,64.94
2022-11-15T19:04:23.669Z,64.89
2022-11-15T19:06:52.813Z,65.13
2022-11-15T19:09:20.717Z,65.02
2022-11-15T19:11:51.269Z,65.55
2022-11-15T19:14:19.589Z,65.54
2022-11-15T19:16:52.013Z,64.59
2022-11-15T19:19:21.021Z,64.55
2022-11-15T19:21:48.982Z,66.21
2022-11-15T19:24:16.456Z,65.75
2022-11-15T19:26:45.042Z,65.86
2022-11-15T19:29:14.702Z,65.81
2022-11-15T19:31:42.676Z,65.24
2022-11-15T19:34:10.377Z,65.56
2022-11-15T19:36:39.781Z,66.43
2022-11-15T19:39:09.834Z,66.73
2022-11-15T19:41:38.843Z,66.63
2022-11-15T19:44:07.036Z,66.95
2022-11-15T19:46:36.129Z,67.44
2022-11-15T19:49:03.748Z,67.86
2022-11-15T19:51:31.760Z,68.74
2022-11-15T19:54:01.254Z,68.43
2022-11-15T19:56:28.776Z,68.87
2022-11-15T19:58:57.439Z,68.17
2022-11-15T20:01:26.881Z,68.96
2022-11-15T20:03:58.710Z,68.83
2022-11-15T20:06:28.307Z,69.51
2022-11-15T20:08:55.875Z,69.17
2022-11-15T20:11:23.689Z,69.48
2022-11-15T20:13:51.475Z,69.51
2022-11-15T20:16:21.177Z,69.64
2022-11-15T20:18:49.594Z,70.01
2022-11-15T20:21:18.915Z,70.86
2022-11-15T20:23:47.578Z,70.05
2022-11-15T20:26:15.824Z,70.28
2022-11-15T20:28:44.610Z,71.44
2022-11-15T20:31:12.689Z,71.32
2022-11-15T20:33:40.224Z,70.84
2022-11-15T20:36:10.780Z,72.00
2022-11-15T20:38:39.880Z,72.46
2022-11-15T20:41:07.794Z,72.01
2022-11-15T20:43:35.419Z,71.73
2022-11-15T20:46:02.990Z,71.85
2022-11-15T20:48:31.741Z,70.94
2022-11-15T20:51:07.358Z,71.93
2022-11-15T20:53:34.908Z,71.59
2022-11-15T20:56:08.950Z,72.13
2022-11-15T20:58:37.376Z,71.69
2022-11-15T21:01:05.256Z,72.07
2022-11-15T21:03:33.104Z,72.26
2022-11-15T21:06:01.208Z,72.54
2022-11-15T21:08:48.728Z,71.79
2022-11-15T21:11:35.137Z,72.62
2022-11-15T21:14:07.712Z,72.19
2022-11-15T21:16:37.116Z,72.28
2022-11-15T21:19:04.640Z,72.31
2022-11-15T21:21:32.151Z,72.05
2022-11-15T21:23:59.653Z,71.68
2022-11-15T21:26:28.838Z,71.56
2022-11-15T21:28:56.320Z,71.43
2022-11-15T21:31:25.016Z,71.33
2022-11-15T21:33:52.734Z,72.01
2022-11-15T21:36:20.390Z,71.59
2022-11-15T21:38:47.882Z,71.70
2022-11-15T21:41:17.327Z,71.80
2022-11-15T21:43:46.141Z,72.78
2022-11-15T21:46:13.836Z,71.69
2022-11-15T21:48:41.432Z,72.47
2022-11-15T21:51:11.338Z,71.43
2022-11-15T21:53:38.816Z,72.46
2022-11-15T21:56:06.849Z,71.74
2022-11-15T21:58:35.122Z,72.65
2022-11-15T22:01:22.658Z,72.41
2022-11-15T22:03:50.267Z,72.88
2022-11-15T22:06:18.408Z,72.10
2022-11-15T22:08:47.070Z,73.02
2022-11-15T22:11:15.224Z,72.71
2022-11-15T22:13:43.256Z,72.16
2022-11-15T22:16:12.188Z,73.85
2022-11-15T22:18:39.829Z,73.70
2022-11-15T22:21:10.199Z,73.76
2022-11-15T22:23:38.049Z,72.81
2022-11-15T22:26:05.857Z,72.83
2022-11-15T22:28:33.695Z,72.91
2022-11-15T22:31:01.502Z,73.09
2022-11-15T22:33:34.630Z,73.75
2022-11-15T22:36:02.584Z,73.56
2022-11-15T22:38:30.542Z,73.98
2022-11-15T22:40:58.693Z,73.71
2022-11-15T22:43:27.730Z,73.36
2022-11-15T22:45:56.344Z,73.07
2022-11-15T22:48:25.519Z,72.78
2022-11-15T22:50:54.570Z,73.06
2022-11-15T22:53:22.368Z,73.98
2022-11-15T22:55:53.604Z,73.07
2022-11-15T22:58:22.308Z,73.45
2022-11-15T23:00:50.718Z,74.29
2022-11-15T23:03:19.632Z,73.57
2022-11-15T23:05:47.717Z,73.82
2022-11-15T23:08:17.289Z,73.83
2022-11-15T23:11:03.037Z,74.68
2022-11-15T23:13:32.235Z,73.94
2022-11-15T23:16:25.460Z,74.03
2022-11-15T23:18:54.960Z,73.90
2022-11-15T23:21:42.068Z,74.19
2022-11-15T23:24:13.190Z,74.42
2022-11-15T23:26:41.418Z,75.01
2022-11-15T23:29:11.682Z,74.70
2022-11-15T23:32:01.912Z,74.80
2022-11-15T23:34:30.287Z,75.03
2022-11-15T23:36:57.990Z,75.05
2022-11-15T23:39:27.198Z,74.78
2022-11-15T23:41:55.022Z,75.24
2022-11-15T23:44:22.461Z,74.97
2022-11-15T23:46:49.952Z,75.27
2022-11-15T23:49:17.631Z,75.91
2022-11-15T23:51:45.237Z,74.77
2022-11-15T23:54:13.292Z,75.03
2022-11-15T23:56:42.202Z,75.14
2022-11-15T23:59:09.680Z,75.69
